sensor_id;sensor_type;location;lat;lon;timestamp;temperature;humidity
21171;DHT22;10743;52.160;20.910;2023-04-24T00:09:29;27.10;31.60
21171;DHT22;10743;52.160;20.910;2023-04-24T00:19:18;27.10;32.10
21171;DHT22;10743;52.160;20.910;2023-04-24T00:26:45;26.80;31.90
21171;DHT22;10743;52.160;20.910;2023-04-24T00:29:12;26.90;31.80
21171;DHT22;10743;52.160;20.910;2023-04-24T00:31:39;26.80;31.80
21171;DHT22;10743;52.160;20.910;2023-04-24T01:06:06;26.60;31.40
21171;DHT22;10743;52.160;20.910;2023-04-24T01:08:34;26.60;31.20
21171;DHT22;10743;52.160;20.910;2023-04-24T01:11:04;26.60;31.10
21171;DHT22;10743;52.160;20.910;2023-04-24T01:13:32;26.70;32.10
21171;DHT22;10743;52.160;20.910;2023-04-24T01:18:28;26.60;32.00
21171;DHT22;10743;52.160;20.910;2023-04-24T01:20:59;26.50;31.50
21171;DHT22;10743;52.160;20.910;2023-04-24T01:28:22;26.50;32.70
21171;DHT22;10743;52.160;20.910;2023-04-24T01:30:49;26.40;32.50
21171;DHT22;10743;52.160;20.910;2023-04-24T01:38:11;26.50;32.50
21171;DHT22;10743;52.160;20.910;2023-04-24T01:48:03;26.20;32.60
21171;DHT22;10743;52.160;20.910;2023-04-24T01:55:26;26.10;32.60
21171;DHT22;10743;52.160;20.910;2023-04-24T01:57:55;26.20;32.40
21171;DHT22;10743;52.160;20.910;2023-04-24T02:05:20;26.10;32.80
21171;DHT22;10743;52.160;20.910;2023-04-24T02:07:47;26.20;33.10
21171;DHT22;10743;52.160;20.910;2023-04-24T02:15:09;25.90;32.60
21171;DHT22;10743;52.160;20.910;2023-04-24T02:17:37;26.20;32.10
21171;DHT22;10743;52.160;20.910;2023-04-24T02:20:06;26.00;31.80
21171;DHT22;10743;52.160;20.910;2023-04-24T02:25:02;26.00;31.80
21171;DHT22;10743;52.160;20.910;2023-04-24T02:32:24;26.10;32.00
21171;DHT22;10743;52.160;20.910;2023-04-24T02:34:51;26.10;32.10
21171;DHT22;10743;52.160;20.910;2023-04-24T02:37:18;26.10;32.30
21171;DHT22;10743;52.160;20.910;2023-04-24T02:39:45;26.10;32.10
21171;DHT22;10743;52.160;20.910;2023-04-24T02:42:12;26.10;32.00
21171;DHT22;10743;52.160;20.910;2023-04-24T02:44:39;26.00;32.00
21171;DHT22;10743;52.160;20.910;2023-04-24T02:47:07;26.10;32.40
21171;DHT22;10743;52.160;20.910;2023-04-24T02:49:35;26.10;33.00
21171;DHT22;10743;52.160;20.910;2023-04-24T02:52:02;26.10;32.90
21171;DHT22;10743;52.160;20.910;2023-04-24T02:54:29;26.10;32.90
21171;DHT22;10743;52.160;20.910;2023-04-24T02:56:56;26.00;32.60
21171;DHT22;10743;52.160;20.910;2023-04-24T02:59:23;26.00;32.60
21171;DHT22;10743;52.160;20.910;2023-04-24T03:01:50;26.00;33.10
21171;DHT22;10743;52.160;20.910;2023-04-24T03:04:17;26.00;33.10
21171;DHT22;10743;52.160;20.910;2023-04-24T03:06:47;26.00;33.10
21171;DHT22;10743;52.160;20.910;2023-04-24T03:09:14;25.90;33.20
21171;DHT22;10743;52.160;20.910;2023-04-24T03:11:41;25.90;33.30
21171;DHT22;10743;52.160;20.910;2023-04-24T03:14:08;25.80;32.80
21171;DHT22;10743;52.160;20.910;2023-04-24T03:16:37;25.80;33.50
21171;DHT22;10743;52.160;20.910;2023-04-24T03:19:06;25.80;33.50
21171;DHT22;10743;52.160;20.910;2023-04-24T03:21:39;25.80;33.60
21171;DHT22;10743;52.160;20.910;2023-04-24T03:24:10;25.70;33.70
21171;DHT22;10743;52.160;20.910;2023-04-24T03:26:37;25.70;33.70
21171;DHT22;10743;52.160;20.910;2023-04-24T03:29:18;25.70;33.80
21171;DHT22;10743;52.160;20.910;2023-04-24T03:31:46;25.70;33.90
21171;DHT22;10743;52.160;20.910;2023-04-24T03:34:13;25.70;34.00
21171;DHT22;10743;52.160;20.910;2023-04-24T03:36:40;25.60;34.10
21171;DHT22;10743;52.160;20.910;2023-04-24T03:39:08;25.60;34.20
21171;DHT22;10743;52.160;20.910;2023-04-24T03:41:37;25.50;33.40
21171;DHT22;10743;52.160;20.910;2023-04-24T03:44:15;25.60;34.20
21171;DHT22;10743;52.160;20.910;2023-04-24T03:46:42;25.60;34.10
21171;DHT22;10743;52.160;20.910;2023-04-24T03:49:09;25.60;34.00
21171;DHT22;10743;52.160;20.910;2023-04-24T03:51:41;25.60;34.20
21171;DHT22;10743;52.160;20.910;2023-04-24T03:56:45;25.60;33.50
21171;DHT22;10743;52.160;20.910;2023-04-24T03:59:12;25.60;34.20
21171;DHT22;10743;52.160;20.910;2023-04-24T04:01:43;25.60;34.20
21171;DHT22;10743;52.160;20.910;2023-04-24T04:04:16;25.60;34.00
21171;DHT22;10743;52.160;20.910;2023-04-24T04:06:44;25.70;33.50
21171;DHT22;10743;52.160;20.910;2023-04-24T04:09:13;25.70;33.30
21171;DHT22;10743;52.160;20.910;2023-04-24T04:11:40;25.70;33.70
21171;DHT22;10743;52.160;20.910;2023-04-24T04:14:07;25.70;33.50
21171;DHT22;10743;52.160;20.910;2023-04-24T04:16:38;25.70;33.50
21171;DHT22;10743;52.160;20.910;2023-04-24T04:19:06;25.80;33.50
21171;DHT22;10743;52.160;20.910;2023-04-24T04:21:34;25.80;33.60
21171;DHT22;10743;52.160;20.910;2023-04-24T04:24:09;25.80;33.70
21171;DHT22;10743;52.160;20.910;2023-04-24T04:26:41;25.90;33.70
21171;DHT22;10743;52.160;20.910;2023-04-24T04:29:20;25.90;33.60
21171;DHT22;10743;52.160;20.910;2023-04-24T04:31:49;25.90;33.50
21171;DHT22;10743;52.160;20.910;2023-04-24T04:34:16;26.00;33.60
21171;DHT22;10743;52.160;20.910;2023-04-24T04:36:44;26.10;33.20
21171;DHT22;10743;52.160;20.910;2023-04-24T04:39:25;26.10;33.10
21171;DHT22;10743;52.160;20.910;2023-04-24T04:41:58;26.10;33.40
21171;DHT22;10743;52.160;20.910;2023-04-24T04:44:29;26.10;33.30
21171;DHT22;10743;52.160;20.910;2023-04-24T04:47:00;26.20;33.90
21171;DHT22;10743;52.160;20.910;2023-04-24T04:52:01;26.30;32.50
21171;DHT22;10743;52.160;20.910;2023-04-24T04:54:28;26.40;33.10
21171;DHT22;10743;52.160;20.910;2023-04-24T04:56:56;26.40;33.10
21171;DHT22;10743;52.160;20.910;2023-04-24T04:59:24;26.40;33.10
21171;DHT22;10743;52.160;20.910;2023-04-24T05:01:57;26.50;33.10
21171;DHT22;10743;52.160;20.910;2023-04-24T05:04:24;26.50;32.90
21171;DHT22;10743;52.160;20.910;2023-04-24T05:06:52;26.50;33.00
21171;DHT22;10743;52.160;20.910;2023-04-24T05:11:55;26.60;32.30
21171;DHT22;10743;52.160;20.910;2023-04-24T05:16:51;26.70;32.20
21171;DHT22;10743;52.160;20.910;2023-04-24T05:19:20;26.80;32.80
21171;DHT22;10743;52.160;20.910;2023-04-24T05:21:47;26.90;33.10
21171;DHT22;10743;52.160;20.910;2023-04-24T05:24:14;26.90;32.80
21171;DHT22;10743;52.160;20.910;2023-04-24T05:27:02;27.00;32.30
21171;DHT22;10743;52.160;20.910;2023-04-24T05:29:36;27.10;32.10
21171;DHT22;10743;52.160;20.910;2023-04-24T05:34:32;27.20;31.60
21171;DHT22;10743;52.160;20.910;2023-04-24T05:36:59;27.20;32.10
21171;DHT22;10743;52.160;20.910;2023-04-24T05:39:27;27.20;32.20
21171;DHT22;10743;52.160;20.910;2023-04-24T05:41:54;27.30;32.20
21171;DHT22;10743;52.160;20.910;2023-04-24T05:44:24;27.30;32.10
21171;DHT22;10743;52.160;20.910;2023-04-24T05:46:52;27.30;32.00
21171;DHT22;10743;52.160;20.910;2023-04-24T05:49:19;27.40;32.10
21171;DHT22;10743;52.160;20.910;2023-04-24T05:51:47;27.40;32.40
21171;DHT22;10743;52.160;20.910;2023-04-24T05:54:15;27.50;32.50
21171;DHT22;10743;52.160;20.910;2023-04-24T05:56:42;27.50;32.30
21171;DHT22;10743;52.160;20.910;2023-04-24T05:59:13;27.70;32.10
21171;DHT22;10743;52.160;20.910;2023-04-24T06:01:40;27.70;32.30
21171;DHT22;10743;52.160;20.910;2023-04-24T06:04:15;27.70;32.10
21171;DHT22;10743;52.160;20.910;2023-04-24T06:06:42;27.70;32.10
21171;DHT22;10743;52.160;20.910;2023-04-24T06:09:09;27.80;32.00
21171;DHT22;10743;52.160;20.910;2023-04-24T06:11:37;27.80;32.30
21171;DHT22;10743;52.160;20.910;2023-04-24T06:14:05;27.90;32.20
21171;DHT22;10743;52.160;20.910;2023-04-24T06:16:38;27.90;31.80
21171;DHT22;10743;52.160;20.910;2023-04-24T06:19:27;28.00;32.20
21171;DHT22;10743;52.160;20.910;2023-04-24T06:21:54;28.00;31.90
21171;DHT22;10743;52.160;20.910;2023-04-24T06:24:21;28.10;32.00
21171;DHT22;10743;52.160;20.910;2023-04-24T06:26:48;28.10;32.30
21171;DHT22;10743;52.160;20.910;2023-04-24T06:29:15;28.20;32.40
21171;DHT22;10743;52.160;20.910;2023-04-24T06:31:42;28.20;32.30
21171;DHT22;10743;52.160;20.910;2023-04-24T06:34:09;28.30;32.50
21171;DHT22;10743;52.160;20.910;2023-04-24T06:36:36;28.40;32.60
21171;DHT22;10743;52.160;20.910;2023-04-24T06:39:04;28.50;32.10
21171;DHT22;10743;52.160;20.910;2023-04-24T06:41:31;28.60;32.50
21171;DHT22;10743;52.160;20.910;2023-04-24T06:43:58;28.70;32.50
21171;DHT22;10743;52.160;20.910;2023-04-24T06:46:25;28.80;31.70
21171;DHT22;10743;52.160;20.910;2023-04-24T06:48:54;28.90;31.40
21171;DHT22;10743;52.160;20.910;2023-04-24T06:51:24;29.00;31.60
21171;DHT22;10743;52.160;20.910;2023-04-24T06:53:53;29.10;31.40
21171;DHT22;10743;52.160;20.910;2023-04-24T06:56:20;29.20;31.60
21171;DHT22;10743;52.160;20.910;2023-04-24T06:58:47;29.20;31.80
21171;DHT22;10743;52.160;20.910;2023-04-24T07:01:14;29.40;31.60
21171;DHT22;10743;52.160;20.910;2023-04-24T07:03:41;29.50;31.50
21171;DHT22;10743;52.160;20.910;2023-04-24T07:06:09;29.50;31.50
21171;DHT22;10743;52.160;20.910;2023-04-24T07:08:40;29.70;31.70
21171;DHT22;10743;52.160;20.910;2023-04-24T07:11:08;29.80;31.40
21171;DHT22;10743;52.160;20.910;2023-04-24T07:13:35;29.80;30.50
21171;DHT22;10743;52.160;20.910;2023-04-24T07:16:02;30.00;30.40
21171;DHT22;10743;52.160;20.910;2023-04-24T07:18:29;30.00;30.60
21171;DHT22;10743;52.160;20.910;2023-04-24T07:20:57;30.10;30.90
21171;DHT22;10743;52.160;20.910;2023-04-24T07:23:24;30.10;30.80
21171;DHT22;10743;52.160;20.910;2023-04-24T07:25:51;30.20;30.70
21171;DHT22;10743;52.160;20.910;2023-04-24T07:28:18;30.20;30.60
21171;DHT22;10743;52.160;20.910;2023-04-24T07:30:45;30.30;31.40
21171;DHT22;10743;52.160;20.910;2023-04-24T07:33:12;30.30;30.60
21171;DHT22;10743;52.160;20.910;2023-04-24T07:35:40;30.40;30.70
21171;DHT22;10743;52.160;20.910;2023-04-24T07:38:07;30.50;30.30
21171;DHT22;10743;52.160;20.910;2023-04-24T07:40:34;30.50;30.10
21171;DHT22;10743;52.160;20.910;2023-04-24T07:43:01;30.50;30.10
21171;DHT22;10743;52.160;20.910;2023-04-24T07:45:28;30.60;30.10
21171;DHT22;10743;52.160;20.910;2023-04-24T07:47:55;30.60;30.30
21171;DHT22;10743;52.160;20.910;2023-04-24T07:50:22;30.60;30.40
21171;DHT22;10743;52.160;20.910;2023-04-24T07:52:49;30.80;29.60
21171;DHT22;10743;52.160;20.910;2023-04-24T07:55:16;30.80;29.60
21171;DHT22;10743;52.160;20.910;2023-04-24T07:57:44;30.80;29.60
21171;DHT22;10743;52.160;20.910;2023-04-24T08:00:12;30.80;29.70
21171;DHT22;10743;52.160;20.910;2023-04-24T08:02:40;30.90;29.70
21171;DHT22;10743;52.160;20.910;2023-04-24T08:05:07;30.90;30.00
21171;DHT22;10743;52.160;20.910;2023-04-24T08:07:35;30.90;30.00
21171;DHT22;10743;52.160;20.910;2023-04-24T08:10:02;30.80;30.50
21171;DHT22;10743;52.160;20.910;2023-04-24T08:12:30;30.90;30.70
21171;DHT22;10743;52.160;20.910;2023-04-24T08:14:57;30.90;30.20
21171;DHT22;10743;52.160;20.910;2023-04-24T08:17:24;30.90;30.00
21171;DHT22;10743;52.160;20.910;2023-04-24T08:19:52;30.90;30.40
21171;DHT22;10743;52.160;20.910;2023-04-24T08:22:25;30.90;30.50
21171;DHT22;10743;52.160;20.910;2023-04-24T08:24:53;31.00;30.60
21171;DHT22;10743;52.160;20.910;2023-04-24T08:27:20;31.00;30.30
21171;DHT22;10743;52.160;20.910;2023-04-24T08:29:47;31.00;30.00
21171;DHT22;10743;52.160;20.910;2023-04-24T08:32:14;31.10;30.10
21171;DHT22;10743;52.160;20.910;2023-04-24T08:34:41;31.10;30.00
21171;DHT22;10743;52.160;20.910;2023-04-24T08:37:08;31.10;30.00
21171;DHT22;10743;52.160;20.910;2023-04-24T08:39:36;31.10;30.20
21171;DHT22;10743;52.160;20.910;2023-04-24T08:42:05;31.20;30.30
21171;DHT22;10743;52.160;20.910;2023-04-24T08:44:35;31.20;31.00
21171;DHT22;10743;52.160;20.910;2023-04-24T08:47:03;31.20;30.60
21171;DHT22;10743;52.160;20.910;2023-04-24T08:49:31;31.30;30.70
21171;DHT22;10743;52.160;20.910;2023-04-24T08:51:58;31.40;30.70
21171;DHT22;10743;52.160;20.910;2023-04-24T08:54:27;31.40;31.20
21171;DHT22;10743;52.160;20.910;2023-04-24T08:56:59;31.40;30.90
21171;DHT22;10743;52.160;20.910;2023-04-24T08:59:28;31.50;31.00
21171;DHT22;10743;52.160;20.910;2023-04-24T09:01:56;31.60;30.70
21171;DHT22;10743;52.160;20.910;2023-04-24T09:04:24;31.70;30.90
21171;DHT22;10743;52.160;20.910;2023-04-24T09:06:56;31.70;30.40
21171;DHT22;10743;52.160;20.910;2023-04-24T09:09:25;31.80;30.20
21171;DHT22;10743;52.160;20.910;2023-04-24T09:11:53;31.90;30.20
21171;DHT22;10743;52.160;20.910;2023-04-24T09:14:23;31.90;30.10
21171;DHT22;10743;52.160;20.910;2023-04-24T09:16:50;32.00;30.60
21171;DHT22;10743;52.160;20.910;2023-04-24T09:19:17;32.10;30.10
21171;DHT22;10743;52.160;20.910;2023-04-24T09:21:48;32.10;29.60
21171;DHT22;10743;52.160;20.910;2023-04-24T09:24:17;32.30;29.40
21171;DHT22;10743;52.160;20.910;2023-04-24T09:26:46;32.30;27.90
21171;DHT22;10743;52.160;20.910;2023-04-24T09:29:15;32.40;27.90
21171;DHT22;10743;52.160;20.910;2023-04-24T09:31:45;32.50;27.20
21171;DHT22;10743;52.160;20.910;2023-04-24T09:34:12;32.60;27.30
21171;DHT22;10743;52.160;20.910;2023-04-24T09:36:42;32.70;27.40
21171;DHT22;10743;52.160;20.910;2023-04-24T09:39:12;32.80;27.40
21171;DHT22;10743;52.160;20.910;2023-04-24T09:41:51;32.90;27.50
21171;DHT22;10743;52.160;20.910;2023-04-24T09:44:21;33.00;28.30
21171;DHT22;10743;52.160;20.910;2023-04-24T09:46:52;33.20;27.40
21171;DHT22;10743;52.160;20.910;2023-04-24T09:49:28;33.30;27.50
21171;DHT22;10743;52.160;20.910;2023-04-24T09:52:07;33.40;27.50
21171;DHT22;10743;52.160;20.910;2023-04-24T09:54:36;33.50;26.80
21171;DHT22;10743;52.160;20.910;2023-04-24T09:57:04;33.70;26.60
21171;DHT22;10743;52.160;20.910;2023-04-24T09:59:31;33.80;26.90
21171;DHT22;10743;52.160;20.910;2023-04-24T10:02:00;33.90;27.20
21171;DHT22;10743;52.160;20.910;2023-04-24T10:04:28;34.00;26.90
21171;DHT22;10743;52.160;20.910;2023-04-24T10:06:56;34.10;27.40
21171;DHT22;10743;52.160;20.910;2023-04-24T10:09:25;34.20;26.50
21171;DHT22;10743;52.160;20.910;2023-04-24T10:11:54;34.30;26.20
21171;DHT22;10743;52.160;20.910;2023-04-24T10:14:23;34.40;26.90
21171;DHT22;10743;52.160;20.910;2023-04-24T10:16:53;34.50;26.50
21171;DHT22;10743;52.160;20.910;2023-04-24T10:19:21;34.60;26.00
21171;DHT22;10743;52.160;20.910;2023-04-24T10:21:52;34.60;26.00
21171;DHT22;10743;52.160;20.910;2023-04-24T10:24:21;34.60;26.50
21171;DHT22;10743;52.160;20.910;2023-04-24T10:26:48;34.80;26.90
21171;DHT22;10743;52.160;20.910;2023-04-24T10:29:18;34.80;26.50
21171;DHT22;10743;52.160;20.910;2023-04-24T10:31:45;34.90;26.50
21171;DHT22;10743;52.160;20.910;2023-04-24T10:34:15;35.00;26.60
21171;DHT22;10743;52.160;20.910;2023-04-24T10:36:51;35.20;25.70
21171;DHT22;10743;52.160;20.910;2023-04-24T10:39:21;35.30;26.00
21171;DHT22;10743;52.160;20.910;2023-04-24T10:41:54;35.30;26.20
21171;DHT22;10743;52.160;20.910;2023-04-24T10:44:24;35.30;26.50
21171;DHT22;10743;52.160;20.910;2023-04-24T10:46:55;35.50;25.40
21171;DHT22;10743;52.160;20.910;2023-04-24T10:49:30;35.60;25.80
21171;DHT22;10743;52.160;20.910;2023-04-24T10:52:03;35.70;24.90
21171;DHT22;10743;52.160;20.910;2023-04-24T11:00:15;35.80;23.80
21171;DHT22;10743;52.160;20.910;2023-04-24T11:02:46;35.90;24.30
21171;DHT22;10743;52.160;20.910;2023-04-24T11:05:21;35.90;24.00
21171;DHT22;10743;52.160;20.910;2023-04-24T11:08:11;36.00;24.40
21171;DHT22;10743;52.160;20.910;2023-04-24T11:10:56;36.00;24.40
21171;DHT22;10743;52.160;20.910;2023-04-24T11:18:52;36.40;23.70
21171;DHT22;10743;52.160;20.910;2023-04-24T11:21:41;36.40;23.80
21171;DHT22;10743;52.160;20.910;2023-04-24T11:27:21;36.60;23.40
21171;DHT22;10743;52.160;20.910;2023-04-24T11:32:34;36.60;23.70
21171;DHT22;10743;52.160;20.910;2023-04-24T11:35:23;36.60;23.90
21171;DHT22;10743;52.160;20.910;2023-04-24T11:37:55;36.60;24.30
21171;DHT22;10743;52.160;20.910;2023-04-24T11:40:25;36.50;24.40
21171;DHT22;10743;52.160;20.910;2023-04-24T11:42:53;36.60;23.80
21171;DHT22;10743;52.160;20.910;2023-04-24T11:45:25;36.70;23.30
21171;DHT22;10743;52.160;20.910;2023-04-24T11:47:57;36.70;23.50
21171;DHT22;10743;52.160;20.910;2023-04-24T11:50:26;36.70;24.00
21171;DHT22;10743;52.160;20.910;2023-04-24T11:52:55;36.70;23.90
21171;DHT22;10743;52.160;20.910;2023-04-24T11:55:24;36.70;24.40
21171;DHT22;10743;52.160;20.910;2023-04-24T11:57:58;36.70;23.60
21171;DHT22;10743;52.160;20.910;2023-04-24T12:00:31;36.80;23.30
21171;DHT22;10743;52.160;20.910;2023-04-24T12:03:11;36.80;23.60
21171;DHT22;10743;52.160;20.910;2023-04-24T12:05:39;36.80;23.40
21171;DHT22;10743;52.160;20.910;2023-04-24T12:08:07;36.70;23.70
21171;DHT22;10743;52.160;20.910;2023-04-24T12:10:34;36.70;23.60
21171;DHT22;10743;52.160;20.910;2023-04-24T12:13:02;36.70;22.80
21171;DHT22;10743;52.160;20.910;2023-04-24T12:15:30;36.70;22.90
21171;DHT22;10743;52.160;20.910;2023-04-24T12:17:57;36.60;22.90
21171;DHT22;10743;52.160;20.910;2023-04-24T12:20:27;36.50;23.20
21171;DHT22;10743;52.160;20.910;2023-04-24T12:22:57;36.40;23.00
21171;DHT22;10743;52.160;20.910;2023-04-24T12:25:27;36.30;23.50
21171;DHT22;10743;52.160;20.910;2023-04-24T12:28:09;36.20;23.80
21171;DHT22;10743;52.160;20.910;2023-04-24T12:30:41;36.10;23.90
21171;DHT22;10743;52.160;20.910;2023-04-24T12:33:18;36.00;23.60
21171;DHT22;10743;52.160;20.910;2023-04-24T12:35:48;36.00;23.60
21171;DHT22;10743;52.160;20.910;2023-04-24T12:38:22;36.00;23.30
21171;DHT22;10743;52.160;20.910;2023-04-24T12:41:04;35.80;23.00
21171;DHT22;10743;52.160;20.910;2023-04-24T12:43:32;35.50;23.10
21171;DHT22;10743;52.160;20.910;2023-04-24T12:45:59;35.20;23.40
21171;DHT22;10743;52.160;20.910;2023-04-24T12:48:27;34.40;23.50
21171;DHT22;10743;52.160;20.910;2023-04-24T12:50:56;34.40;24.10
21171;DHT22;10743;52.160;20.910;2023-04-24T12:53:28;34.00;24.70
21171;DHT22;10743;52.160;20.910;2023-04-24T12:55:56;33.80;24.80
21171;DHT22;10743;52.160;20.910;2023-04-24T12:58:23;33.50;25.10
21171;DHT22;10743;52.160;20.910;2023-04-24T13:00:51;33.30;25.00
21171;DHT22;10743;52.160;20.910;2023-04-24T13:03:18;33.20;25.20
21171;DHT22;10743;52.160;20.910;2023-04-24T13:05:46;30.60;24.40
21171;DHT22;10743;52.160;20.910;2023-04-24T13:08:13;33.00;25.20
21171;DHT22;10743;52.160;20.910;2023-04-24T13:10:40;33.00;25.30
21171;DHT22;10743;52.160;20.910;2023-04-24T13:13:08;32.90;25.50
21171;DHT22;10743;52.160;20.910;2023-04-24T13:15:35;32.90;25.60
21171;DHT22;10743;52.160;20.910;2023-04-24T13:18:02;33.00;25.20
21171;DHT22;10743;52.160;20.910;2023-04-24T13:20:29;32.90;25.30
21171;DHT22;10743;52.160;20.910;2023-04-24T13:22:56;32.90;24.80
21171;DHT22;10743;52.160;20.910;2023-04-24T13:25:23;32.90;25.10
21171;DHT22;10743;52.160;20.910;2023-04-24T13:27:51;33.00;24.70
21171;DHT22;10743;52.160;20.910;2023-04-24T13:30:18;33.00;24.50
21171;DHT22;10743;52.160;20.910;2023-04-24T13:32:45;33.00;24.30
21171;DHT22;10743;52.160;20.910;2023-04-24T13:35:12;33.00;24.60
21171;DHT22;10743;52.160;20.910;2023-04-24T13:37:39;33.00;23.80
21171;DHT22;10743;52.160;20.910;2023-04-24T13:40:07;33.10;24.70
21171;DHT22;10743;52.160;20.910;2023-04-24T13:42:34;33.10;24.20
21171;DHT22;10743;52.160;20.910;2023-04-24T13:45:01;33.10;24.60
21171;DHT22;10743;52.160;20.910;2023-04-24T13:47:50;33.20;24.10
21171;DHT22;10743;52.160;20.910;2023-04-24T13:50:18;33.30;24.00
21171;DHT22;10743;52.160;20.910;2023-04-24T13:52:45;33.50;23.80
21171;DHT22;10743;52.160;20.910;2023-04-24T13:55:12;33.50;23.40
21171;DHT22;10743;52.160;20.910;2023-04-24T13:57:39;33.60;23.90
21171;DHT22;10743;52.160;20.910;2023-04-24T14:00:07;33.70;23.70
21171;DHT22;10743;52.160;20.910;2023-04-24T14:02:37;31.40;22.60
21171;DHT22;10743;52.160;20.910;2023-04-24T14:05:04;33.80;23.80
21171;DHT22;10743;52.160;20.910;2023-04-24T14:07:33;33.90;23.80
21171;DHT22;10743;52.160;20.910;2023-04-24T14:10:00;33.90;24.10
21171;DHT22;10743;52.160;20.910;2023-04-24T14:12:27;33.80;24.10
21171;DHT22;10743;52.160;20.910;2023-04-24T14:14:54;33.80;24.40
21171;DHT22;10743;52.160;20.910;2023-04-24T14:17:21;33.90;24.70
21171;DHT22;10743;52.160;20.910;2023-04-24T14:19:48;33.90;24.70
21171;DHT22;10743;52.160;20.910;2023-04-24T14:22:15;33.90;24.30
21171;DHT22;10743;52.160;20.910;2023-04-24T14:24:43;33.90;24.10
21171;DHT22;10743;52.160;20.910;2023-04-24T14:27:10;33.90;23.50
21171;DHT22;10743;52.160;20.910;2023-04-24T14:29:37;33.90;24.10
21171;DHT22;10743;52.160;20.910;2023-04-24T14:32:04;33.90;23.70
21171;DHT22;10743;52.160;20.910;2023-04-24T14:34:31;33.90;24.00
21171;DHT22;10743;52.160;20.910;2023-04-24T14:36:58;33.90;23.30
21171;DHT22;10743;52.160;20.910;2023-04-24T14:39:25;33.90;23.30
21171;DHT22;10743;52.160;20.910;2023-04-24T14:41:52;34.00;23.10
21171;DHT22;10743;52.160;20.910;2023-04-24T14:44:19;34.00;23.50
21171;DHT22;10743;52.160;20.910;2023-04-24T14:46:47;34.00;23.70
21171;DHT22;10743;52.160;20.910;2023-04-24T14:49:15;34.10;23.50
21171;DHT22;10743;52.160;20.910;2023-04-24T14:51:42;34.10;23.90
21171;DHT22;10743;52.160;20.910;2023-04-24T14:54:10;34.20;23.50
21171;DHT22;10743;52.160;20.910;2023-04-24T14:56:37;34.30;23.00
21171;DHT22;10743;52.160;20.910;2023-04-24T14:59:06;34.30;22.50
21171;DHT22;10743;52.160;20.910;2023-04-24T15:01:33;34.30;22.70
21171;DHT22;10743;52.160;20.910;2023-04-24T15:04:00;34.40;22.80
21171;DHT22;10743;52.160;20.910;2023-04-24T15:06:29;34.50;23.00
21171;DHT22;10743;52.160;20.910;2023-04-24T15:08:58;34.50;22.60
21171;DHT22;10743;52.160;20.910;2023-04-24T15:11:25;34.50;22.80
21171;DHT22;10743;52.160;20.910;2023-04-24T15:13:52;34.50;22.50
21171;DHT22;10743;52.160;20.910;2023-04-24T15:16:19;34.50;22.60
21171;DHT22;10743;52.160;20.910;2023-04-24T15:18:47;34.50;22.10
21171;DHT22;10743;52.160;20.910;2023-04-24T15:21:14;34.50;22.10
21171;DHT22;10743;52.160;20.910;2023-04-24T15:23:41;34.50;22.40
21171;DHT22;10743;52.160;20.910;2023-04-24T15:26:08;34.50;22.00
21171;DHT22;10743;52.160;20.910;2023-04-24T15:28:35;34.50;21.90
21171;DHT22;10743;52.160;20.910;2023-04-24T15:31:02;34.50;22.10
21171;DHT22;10743;52.160;20.910;2023-04-24T15:33:29;34.40;22.60
21171;DHT22;10743;52.160;20.910;2023-04-24T15:35:56;34.30;22.30
21171;DHT22;10743;52.160;20.910;2023-04-24T15:38:23;34.30;22.80
21171;DHT22;10743;52.160;20.910;2023-04-24T15:40:50;34.30;23.10
21171;DHT22;10743;52.160;20.910;2023-04-24T15:43:17;34.30;23.10
21171;DHT22;10743;52.160;20.910;2023-04-24T15:45:44;34.30;22.80
21171;DHT22;10743;52.160;20.910;2023-04-24T15:48:11;34.20;23.10
21171;DHT22;10743;52.160;20.910;2023-04-24T15:50:38;34.20;23.80
21171;DHT22;10743;52.160;20.910;2023-04-24T15:53:06;34.10;24.00
21171;DHT22;10743;52.160;20.910;2023-04-24T15:55:33;34.20;23.80
21171;DHT22;10743;52.160;20.910;2023-04-24T15:58:01;34.10;24.10
21171;DHT22;10743;52.160;20.910;2023-04-24T16:00:28;34.10;24.00
21171;DHT22;10743;52.160;20.910;2023-04-24T16:03:00;34.00;23.80
21171;DHT22;10743;52.160;20.910;2023-04-24T16:05:28;34.00;23.80
21171;DHT22;10743;52.160;20.910;2023-04-24T16:07:55;34.00;24.00
21171;DHT22;10743;52.160;20.910;2023-04-24T16:10:22;33.90;23.70
21171;DHT22;10743;52.160;20.910;2023-04-24T16:12:50;33.90;24.10
21171;DHT22;10743;52.160;20.910;2023-04-24T16:15:20;33.80;24.10
21171;DHT22;10743;52.160;20.910;2023-04-24T16:17:49;33.70;24.40
21171;DHT22;10743;52.160;20.910;2023-04-24T16:20:16;33.70;24.30
21171;DHT22;10743;52.160;20.910;2023-04-24T16:22:43;33.70;24.30
21171;DHT22;10743;52.160;20.910;2023-04-24T16:25:10;33.60;24.50
21171;DHT22;10743;52.160;20.910;2023-04-24T16:27:37;33.60;25.20
21171;DHT22;10743;52.160;20.910;2023-04-24T16:30:05;33.60;24.70
21171;DHT22;10743;52.160;20.910;2023-04-24T16:32:32;33.50;24.80
21171;DHT22;10743;52.160;20.910;2023-04-24T16:34:59;33.50;24.90
21171;DHT22;10743;52.160;20.910;2023-04-24T16:37:28;33.40;24.80
21171;DHT22;10743;52.160;20.910;2023-04-24T16:39:56;33.40;24.80
21171;DHT22;10743;52.160;20.910;2023-04-24T16:42:23;33.40;25.00
21171;DHT22;10743;52.160;20.910;2023-04-24T16:44:50;33.40;25.20
21171;DHT22;10743;52.160;20.910;2023-04-24T16:47:17;33.30;25.00
21171;DHT22;10743;52.160;20.910;2023-04-24T16:49:44;33.30;25.00
21171;DHT22;10743;52.160;20.910;2023-04-24T16:52:12;33.30;24.80
21171;DHT22;10743;52.160;20.910;2023-04-24T16:54:39;33.20;24.80
21171;DHT22;10743;52.160;20.910;2023-04-24T16:57:06;33.20;24.80
21171;DHT22;10743;52.160;20.910;2023-04-24T16:59:33;33.20;25.00
21171;DHT22;10743;52.160;20.910;2023-04-24T17:02:02;33.20;24.80
21171;DHT22;10743;52.160;20.910;2023-04-24T17:04:29;33.10;25.90
21171;DHT22;10743;52.160;20.910;2023-04-24T17:06:58;33.10;25.60
21171;DHT22;10743;52.160;20.910;2023-04-24T17:09:25;33.10;25.70
21171;DHT22;10743;52.160;20.910;2023-04-24T17:11:52;33.10;25.70
21171;DHT22;10743;52.160;20.910;2023-04-24T17:14:19;33.00;25.30
21171;DHT22;10743;52.160;20.910;2023-04-24T17:16:46;33.00;25.30
21171;DHT22;10743;52.160;20.910;2023-04-24T17:19:13;32.90;25.50
21171;DHT22;10743;52.160;20.910;2023-04-24T17:21:40;32.90;26.00
21171;DHT22;10743;52.160;20.910;2023-04-24T17:24:07;32.90;26.10
21171;DHT22;10743;52.160;20.910;2023-04-24T17:26:34;32.80;25.80
21171;DHT22;10743;52.160;20.910;2023-04-24T17:29:01;32.80;26.00